sensor_id;sensor_type;location;lat;lon;timestamp;pressure;altitude;pressure_sealevel;temperature;humidity
75998;BME280;64685;48.762;44.822;2023-04-01T00:00:44;101346.03;;;3.60;66.71
75998;BME280;64685;48.762;44.822;2023-04-01T00:05:46;101346.81;;;3.56;66.59
75998;BME280;64685;48.762;44.822;2023-04-01T00:10:49;101345.88;;;3.45;66.84
75998;BME280;64685;48.762;44.822;2023-04-01T00:15:52;101345.84;;;3.40;67.12
75998;BME280;64685;48.762;44.822;2023-04-01T00:20:55;101351.69;;;3.44;67.42
75998;BME280;64685;48.762;44.822;2023-04-01T00:26:00;101362.13;;;3.42;66.77
75998;BME280;64685;48.762;44.822;2023-04-01T00:31:08;101351.81;;;3.32;67.13
75998;BME280;64685;48.762;44.822;2023-04-01T00:36:16;101365.56;;;3.27;67.02
75998;BME280;64685;48.762;44.822;2023-04-01T00:41:19;101379.25;;;3.17;67.42
75998;BME280;64685;48.762;44.822;2023-04-01T00:46:23;101396.09;;;3.16;66.95
75998;BME280;64685;48.762;44.822;2023-04-01T00:51:27;101397.94;;;3.10;67.32
75998;BME280;64685;48.762;44.822;2023-04-01T00:56:38;101393.25;;;3.11;67.49
75998;BME280;64685;48.762;44.822;2023-04-01T01:01:42;101379.44;;;2.89;67.39
75998;BME280;64685;48.762;44.822;2023-04-01T01:12:17;101391.00;;;3.08;67.93
75998;BME280;64685;48.762;44.822;2023-04-01T01:38:34;101403.84;;;2.97;67.97
75998;BME280;64685;48.762;44.822;2023-04-01T01:43:41;101396.59;;;2.91;67.95
75998;BME280;64685;48.762;44.822;2023-04-01T01:48:47;101396.84;;;2.90;68.10
75998;BME280;64685;48.762;44.822;2023-04-01T01:53:51;101386.59;;;2.85;68.09
75998;BME280;64685;48.762;44.822;2023-04-01T01:59:08;101385.56;;;2.91;68.49
75998;BME280;64685;48.762;44.822;2023-04-01T02:04:13;101414.19;;;2.85;68.22
75998;BME280;64685;48.762;44.822;2023-04-01T02:09:18;101411.59;;;2.79;68.69
75998;BME280;64685;48.762;44.822;2023-04-01T02:14:41;101414.88;;;2.76;68.73
75998;BME280;64685;48.762;44.822;2023-04-01T02:24:58;101428.66;;;2.76;68.28
75998;BME280;64685;48.762;44.822;2023-04-01T02:30:02;101426.72;;;2.76;68.28
75998;BME280;64685;48.762;44.822;2023-04-01T02:35:07;101430.66;;;2.80;68.37
75998;BME280;64685;48.762;44.822;2023-04-01T02:40:11;101428.03;;;2.90;67.51
75998;BME280;64685;48.762;44.822;2023-04-01T02:45:14;101437.06;;;2.86;67.89
75998;BME280;64685;48.762;44.822;2023-04-01T02:50:17;101423.59;;;2.89;67.68
75998;BME280;64685;48.762;44.822;2023-04-01T02:55:19;101431.25;;;3.04;67.05
75998;BME280;64685;48.762;44.822;2023-04-01T03:00:22;101424.31;;;3.23;66.88
75998;BME280;64685;48.762;44.822;2023-04-01T03:05:24;101424.81;;;3.68;66.13
75998;BME280;64685;48.762;44.822;2023-04-01T03:10:27;101421.19;;;3.89;65.48
75998;BME280;64685;48.762;44.822;2023-04-01T03:15:29;101421.22;;;3.94;64.72
75998;BME280;64685;48.762;44.822;2023-04-01T03:20:32;101429.72;;;3.87;64.52
75998;BME280;64685;48.762;44.822;2023-04-01T03:25:35;101425.66;;;4.26;64.08
75998;BME280;64685;48.762;44.822;2023-04-01T03:30:37;101438.19;;;4.75;63.19
75998;BME280;64685;48.762;44.822;2023-04-01T03:35:40;101444.44;;;5.07;62.40
75998;BME280;64685;48.762;44.822;2023-04-01T03:40:43;101448.34;;;5.88;61.19
75998;BME280;64685;48.762;44.822;2023-04-01T03:45:48;101454.75;;;6.43;59.79
75998;BME280;64685;48.762;44.822;2023-04-01T03:50:51;101455.88;;;6.72;57.27
75998;BME280;64685;48.762;44.822;2023-04-01T03:55:54;101462.88;;;7.48;56.00
75998;BME280;64685;48.762;44.822;2023-04-01T04:00:57;101459.34;;;7.86;54.77
75998;BME280;64685;48.762;44.822;2023-04-01T04:05:59;101453.34;;;8.46;53.46
75998;BME280;64685;48.762;44.822;2023-04-01T04:11:02;101448.25;;;8.87;52.74
75998;BME280;64685;48.762;44.822;2023-04-01T04:16:05;101453.69;;;9.02;52.37
75998;BME280;64685;48.762;44.822;2023-04-01T04:21:12;101468.41;;;8.79;52.22
75998;BME280;64685;48.762;44.822;2023-04-01T04:26:16;101463.31;;;9.14;52.37
75998;BME280;64685;48.762;44.822;2023-04-01T04:31:25;101458.50;;;9.62;51.33
75998;BME280;64685;48.762;44.822;2023-04-01T04:36:31;101472.34;;;10.32;50.35
75998;BME280;64685;48.762;44.822;2023-04-01T04:41:37;101460.72;;;11.62;48.27
75998;BME280;64685;48.762;44.822;2023-04-01T04:46:39;101469.88;;;12.16;47.11
75998;BME280;64685;48.762;44.822;2023-04-01T04:51:46;101469.75;;;12.21;45.87
75998;BME280;64685;48.762;44.822;2023-04-01T04:56:52;101466.91;;;12.35;45.76
75998;BME280;64685;48.762;44.822;2023-04-01T05:01:56;101474.13;;;13.15;44.68
75998;BME280;64685;48.762;44.822;2023-04-01T05:06:59;101460.78;;;14.24;42.49
75998;BME280;64685;48.762;44.822;2023-04-01T05:12:02;101469.34;;;14.70;42.21
75998;BME280;64685;48.762;44.822;2023-04-01T05:17:21;101476.41;;;15.01;40.38
75998;BME280;64685;48.762;44.822;2023-04-01T05:22:23;101477.13;;;15.53;39.71
75998;BME280;64685;48.762;44.822;2023-04-01T05:27:26;101482.66;;;16.28;38.70
75998;BME280;64685;48.762;44.822;2023-04-01T05:32:31;101481.31;;;17.40;37.61
75998;BME280;64685;48.762;44.822;2023-04-01T05:37:36;101492.78;;;18.03;36.20
75998;BME280;64685;48.762;44.822;2023-04-01T05:42:39;101497.59;;;19.61;33.97
75998;BME280;64685;48.762;44.822;2023-04-01T05:47:41;101494.06;;;20.29;33.18
75998;BME280;64685;48.762;44.822;2023-04-01T05:52:45;101486.53;;;20.71;33.21
75998;BME280;64685;48.762;44.822;2023-04-01T05:57:48;101484.84;;;22.14;31.86
75998;BME280;64685;48.762;44.822;2023-04-01T06:02:51;101484.91;;;22.17;30.65
75998;BME280;64685;48.762;44.822;2023-04-01T06:08:08;101494.22;;;22.40;30.07
75998;BME280;64685;48.762;44.822;2023-04-01T06:34:50;101492.59;;;24.08;27.00
75998;BME280;64685;48.762;44.822;2023-04-01T06:56:27;101469.44;;;24.81;25.83
75998;BME280;64685;48.762;44.822;2023-04-01T07:01:49;101460.69;;;25.56;24.90
75998;BME280;64685;48.762;44.822;2023-04-01T07:06:58;101456.63;;;25.57;24.63
75998;BME280;64685;48.762;44.822;2023-04-01T07:12:11;101458.56;;;25.18;24.10
75998;BME280;64685;48.762;44.822;2023-04-01T07:17:41;101445.78;;;24.19;24.79
75998;BME280;64685;48.762;44.822;2023-04-01T07:22:48;101453.22;;;24.38;23.82
75998;BME280;64685;48.762;44.822;2023-04-01T07:28:05;101444.28;;;24.39;23.16
75998;BME280;64685;48.762;44.822;2023-04-01T07:33:18;101439.47;;;25.78;22.83
75998;BME280;64685;48.762;44.822;2023-04-01T07:49:11;101447.25;;;25.77;20.53
75998;BME280;64685;48.762;44.822;2023-04-01T08:00:20;101444.72;;;26.49;19.92
75998;BME280;64685;48.762;44.822;2023-04-01T08:05:44;101425.72;;;27.01;19.42
75998;BME280;64685;48.762;44.822;2023-04-01T08:16:42;101443.47;;;27.54;19.07
75998;BME280;64685;48.762;44.822;2023-04-01T08:21:58;101434.47;;;27.52;19.47
75998;BME280;64685;48.762;44.822;2023-04-01T08:27:16;101424.03;;;28.23;18.88
75998;BME280;64685;48.762;44.822;2023-04-01T08:32:34;101439.94;;;27.90;18.83
75998;BME280;64685;48.762;44.822;2023-04-01T08:37:39;101433.63;;;26.69;18.90
75998;BME280;64685;48.762;44.822;2023-04-01T08:42:55;101449.31;;;27.40;18.53
75998;BME280;64685;48.762;44.822;2023-04-01T09:37:50;101460.59;;;23.45;20.52
75998;BME280;64685;48.762;44.822;2023-04-01T10:38:22;101402.16;;;24.26;20.69
75998;BME280;64685;48.762;44.822;2023-04-01T10:49:44;101386.97;;;23.57;21.03
75998;BME280;64685;48.762;44.822;2023-04-01T11:01:01;101380.72;;;23.41;20.87
75998;BME280;64685;48.762;44.822;2023-04-01T11:28:27;101360.91;;;22.16;22.04
75998;BME280;64685;48.762;44.822;2023-04-01T11:44:29;101349.75;;;20.28;23.19
75998;BME280;64685;48.762;44.822;2023-04-01T11:50:11;101343.03;;;20.17;23.81
75998;BME280;64685;48.762;44.822;2023-04-01T11:55:43;101334.44;;;19.79;24.42
75998;BME280;64685;48.762;44.822;2023-04-01T12:44:16;101286.53;;;18.07;27.57
75998;BME280;64685;48.762;44.822;2023-04-01T12:49:27;101297.44;;;17.93;27.69
75998;BME280;64685;48.762;44.822;2023-04-01T13:16:14;101281.31;;;17.42;28.34
75998;BME280;64685;48.762;44.822;2023-04-01T13:32:02;101289.25;;;16.80;29.12
75998;BME280;64685;48.762;44.822;2023-04-01T13:42:25;101285.78;;;16.50;29.57
75998;BME280;64685;48.762;44.822;2023-04-01T13:53:21;101290.13;;;16.15;30.05
75998;BME280;64685;48.762;44.822;2023-04-01T14:04:23;101288.22;;;15.87;30.75
75998;BME280;64685;48.762;44.822;2023-04-01T14:15:34;101298.38;;;15.38;32.01
75998;BME280;64685;48.762;44.822;2023-04-01T14:52:33;101322.28;;;14.06;34.50
75998;BME280;64685;48.762;44.822;2023-04-01T14:57:37;101323.25;;;13.85;34.71
75998;BME280;64685;48.762;44.822;2023-04-01T15:02:57;101335.31;;;13.68;35.05
75998;BME280;64685;48.762;44.822;2023-04-01T15:08:13;101335.44;;;13.47;35.32
75998;BME280;64685;48.762;44.822;2023-04-01T15:24:24;101346.22;;;13.06;36.33
75998;BME280;64685;48.762;44.822;2023-04-01T15:34:59;101357.56;;;12.70;37.01
75998;BME280;64685;48.762;44.822;2023-04-01T15:41:02;101365.75;;;12.58;36.70
75998;BME280;64685;48.762;44.822;2023-04-01T15:56:20;101359.72;;;12.21;37.43
75998;BME280;64685;48.762;44.822;2023-04-01T16:12:01;101372.47;;;11.91;38.27
75998;BME280;64685;48.762;44.822;2023-04-01T16:22:39;101375.78;;;11.93;39.10
75998;BME280;64685;48.762;44.822;2023-04-01T16:43:42;101385.56;;;11.82;40.02
75998;BME280;64685;48.762;44.822;2023-04-01T16:54:08;101388.28;;;11.74;40.17
75998;BME280;64685;48.762;44.822;2023-04-01T16:59:46;101383.06;;;11.81;39.94
75998;BME280;64685;48.762;44.822;2023-04-01T17:05:04;101385.88;;;11.81;40.57
75998;BME280;64685;48.762;44.822;2023-04-01T17:10:33;101383.28;;;11.84;40.36
75998;BME280;64685;48.762;44.822;2023-04-01T17:42:10;101365.81;;;11.65;41.91
75998;BME280;64685;48.762;44.822;2023-04-01T17:47:29;101363.66;;;11.62;42.14
75998;BME280;64685;48.762;44.822;2023-04-01T17:52:39;101364.84;;;11.70;41.35
75998;BME280;64685;48.762;44.822;2023-04-01T17:58:13;101356.34;;;11.75;42.14
75998;BME280;64685;48.762;44.822;2023-04-01T18:08:58;101343.19;;;11.75;41.61
75998;BME280;64685;48.762;44.822;2023-04-01T18:19:32;101343.19;;;11.75;42.62
75998;BME280;64685;48.762;44.822;2023-04-01T18:24:58;101343.19;;;11.75;42.29
75998;BME280;64685;48.762;44.822;2023-04-01T18:40:50;101337.72;;;11.70;42.06
75998;BME280;64685;48.762;44.822;2023-04-01T18:46:09;101337.78;;;11.79;42.17
75998;BME280;64685;48.762;44.822;2023-04-01T18:51:36;101320.38;;;11.82;42.44
75998;BME280;64685;48.762;44.822;2023-04-01T18:56:43;101322.34;;;11.81;43.12
75998;BME280;64685;48.762;44.822;2023-04-01T19:02:00;101309.56;;;11.89;42.87
75998;BME280;64685;48.762;44.822;2023-04-01T19:07:34;101316.63;;;11.86;42.65
75998;BME280;64685;48.762;44.822;2023-04-01T19:18:35;101307.66;;;11.76;42.75
75998;BME280;64685;48.762;44.822;2023-04-01T19:29:26;101307.47;;;11.59;43.62
75998;BME280;64685;48.762;44.822;2023-04-01T19:39:55;101307.78;;;11.57;42.90
75998;BME280;64685;48.762;44.822;2023-04-01T19:45:38;101315.34;;;11.57;43.36
75998;BME280;64685;48.762;44.822;2023-04-01T19:50:52;101304.28;;;11.38;44.27
75998;BME280;64685;48.762;44.822;2023-04-01T19:56:14;101312.09;;;11.28;44.24
75998;BME280;64685;48.762;44.822;2023-04-01T20:01:38;101304.34;;;11.11;44.76
75998;BME280;64685;48.762;44.822;2023-04-01T20:07:07;101305.91;;;11.04;45.91
75998;BME280;64685;48.762;44.822;2023-04-01T20:17:39;101307.16;;;10.84;46.00
75998;BME280;64685;48.762;44.822;2023-04-01T20:28:21;101305.69;;;10.73;46.14
75998;BME280;64685;48.762;44.822;2023-04-01T20:44:39;101299.56;;;10.44;46.94
75998;BME280;64685;48.762;44.822;2023-04-01T21:06:15;101297.03;;;10.16;49.18
75998;BME280;64685;48.762;44.822;2023-04-01T21:16:36;101285.72;;;10.07;49.39
75998;BME280;64685;48.762;44.822;2023-04-01T21:26:57;101272.53;;;10.13;49.35
75998;BME280;64685;48.762;44.822;2023-04-01T21:59:21;101264.13;;;9.81;50.50
75998;BME280;64685;48.762;44.822;2023-04-01T22:18:09;101254.28;;;9.51;50.89
75998;BME280;64685;48.762;44.822;2023-04-01T22:23:20;101244.34;;;9.45;50.24
75998;BME280;64685;48.762;44.822;2023-04-01T22:28:28;101246.22;;;9.50;49.64
75998;BME280;64685;48.762;44.822;2023-04-01T22:33:57;101233.97;;;9.51;49.93
75998;BME280;64685;48.762;44.822;2023-04-01T22:44:13;101228.13;;;9.47;49.75
75998;BME280;64685;48.762;44.822;2023-04-01T22:49:23;101229.56;;;9.45;49.76
75998;BME280;64685;48.762;44.822;2023-04-01T23:00:00;101223.56;;;9.38;50.49
75998;BME280;64685;48.762;44.822;2023-04-01T23:05:13;101219.97;;;9.37;50.93
75998;BME280;64685;48.762;44.822;2023-04-01T23:15:30;101204.81;;;9.25;50.77
75998;BME280;64685;48.762;44.822;2023-04-01T23:31:34;101204.53;;;9.26;51.74
75998;BME280;64685;48.762;44.822;2023-04-01T23:36:47;101197.44;;;9.34;51.59
75998;BME280;64685;48.762;44.822;2023-04-01T23:41:54;101208.88;;;9.32;51.09
75998;BME280;64685;48.762;44.822;2023-04-01T23:46:59;101196.16;;;9.26;51.40
75998;BME280;64685;48.762;44.822;2023-04-01T23:52:13;101207.91;;;9.23;51.61
75998;BME280;64685;48.762;44.822;2023-04-01T23:57:26;101196.75;;;9.23;51.68
